Indianola, WA (98342)

10:00 AM PDT on March 24, 2017 (GMT -0700)
WeatherOLA | | Change Station

Elev 341 ft 47.75 °N, 122.52 °W | Updated 8 seconds ago

Mostly Cloudy
Mostly Cloudy
46.9 °F
Feels Like 43 °F
N
9.2
Wind Variable Wind from West
Gusts 9.2 mph

Today
High -- | Low -- °F
--% Chance of Precip.
Yesterday
High -- | Low -- °F
Precip. -- in
Pressure 29.79 in
Visibility 10.0 miles
Clouds Scattered Clouds 800 ft
Mostly Cloudy 2000 ft
Overcast 4600 ft
Windchill 43 °F
Dew Point 46 °F
Humidity 95%
Rainfall 0.02 in
Snow Depth Not available.
7:04 AM 7:29 PM
Waning Crescent, 14% visible
METAR KPAE 241653Z 13010KT 10SM SCT008 BKN020 OVC046 08/07 A2978 RMK AO2 RAE00B39E53 SLP087 P0000 T00780067
Pressure 29.79 in
Visibility 10.0 miles
Clouds Scattered Clouds 800 ft
Mostly Cloudy 2000 ft
Overcast 4600 ft
Windchill 43 °F
Dew Point 46 °F
Humidity 95%
Rainfall 0.02 in
Snow Depth Not available.
7:04 AM 7:29 PM
Waning Crescent, 14% visible
METAR KPAE 241653Z 13010KT 10SM SCT008 BKN020 OVC046 08/07 A2978 RMK AO2 RAE00B39E53 SLP087 P0000 T00780067

Get Severe Weather Alerts

Thanks for signing up!

Be on the lookout for a verification email in your inbox.

You'll start receiving the daily forecast at 8 AM.

×

10-Day Weather Forecast

Almanac

Astronomy

Mar. 24, 2017 Rise Set
Actual Time
Civil Twilight
Nautical Twilight
Astronomical Twilight
Moon
Length of Visible Light
Length of Day
Tomorrow will be .
, % of the Moon is Illuminated

Today's Extremes

State Highs State Lows

Community

WunderPhotos

Upload Photos

1,962,540 photos uploaded!

WunderBlog® & News

Nearby

Air Quality

  Air Quality AQ Index Pollutant
Not available.

Snow Depth

Station Depth Elevation

Earthquake Activity

City Distance Mag. Time & Date
Minimum magnitude displayed is 2.5.

Earthquake Activity

City Distance Mag. Time & Date
Minimum magnitude displayed is 2.5.

Coastal Water Temperatures

Place Temperature

Stations

Nearby Weather Stations

Station Location Temp. Windchill Dew Point Humidity Wind Precip. Elev Updated Type
                   

Watches & Warnings

There are currently no watches in effect.